Terminal Aerodrome Forecast
Issued by NWS

Home | Current Version | Previous Version | Text Only | Print | Product List | Glossary On
Versions: 1 2 3 4 5 6 7 8 9 10 11 12 13 14 15 16 17 18 19 20 21 22 23 24
290
FTUS43 KMQT 220154 AAA
TAFSAW
TAF AMD
KSAW 220154Z 2202/2224 10003KT 5SM BR OVC003
      TEMPO 2202/2205 1SM BR
     FM220500 00000KT 1/4SM FG OVC002
     FM221800 VRB03KT 1/2SM FG OVC003
     FM222300 VRB03KT 1SM BR OVC008=

USA.gov is the U.S. government's official web portal to all federal, state and local government web resources and services.